Kishiwada, Japan
Current Conditions -  °F | °C
As of 11:00 PM on Monday 22 Dec 2014 (Local Time) from RJBB Reporting Station
Broken Clouds Broken Clouds  
Wind Chill: 37°   Ceiling: 6000
Heat Index: 45°   Visibility: 6mi
Dew Point: 27°   Wind: 16mph
Humidity: 49%   Direction: 280°W
Pressure: 30.18"   Gusts: NA
Location:  34.47°N, 135.39°E
Report Text: RJBB 221400Z 28014KT 9999 FEW020 BKN060 07/M03 Q1022 NOSIG
Loading
Personal Weather Stations






























Interactive Weather Map New forecast layout! Learn more

10-Day Weather Forecast

Advertisements
Track Severe Weather on mobile